Flight Track Log - Related Links

Times and Time Zones

All times are in EDT time to prevent confusion due to time zone crossing. See the N157UM flight status page for this flight to view local times or setup timezone preferences in your user account.

Time Position Orientation Groundspeed Altitude Reporting Facility
EDT Latitude Longitude Course Direction KTS MPH feet Rate Location/Type
Mon 07:50:12 PM 42.5344 -82.7736 219° Southwest 154 177 2,000  Level Cleveland Center
Mon 07:51:05 PM 42.5058 -82.8094 223° Southwest 155 178 2,000  Level Cleveland Center
Mon 07:51:14 PM 42.5022 -82.8122 210° Southwest 154 177 2,000  Level Cleveland Center
Mon 07:52:12 PM 42.4711 -82.8528 224° Southwest 156 180 2,000  Level Cleveland Center
Mon 07:52:16 PM 42.4706 -82.8517 124° Southeast 154 177 2,000 -273 Level Cleveland Center
Mon 07:53:18 PM 42.4375 -82.8914 222° Southwest 156 180 1,700 -323 Descending Cleveland Center
Mon 07:54:00 PM 42.7808 -82.6755 220° Southwest  Level FlightAware
Mon 07:54:26 PM 42.4181 -82.9222 230° Southwest 71 82 1,300  Level Cleveland Center
Mon 07:55:00 PM 42.7591 -82.6998 219° Southwest  Level FlightAware
Mon 07:55:21 PM 42.4206 -82.9167 59° Northeast 33 38 900  Level Cleveland Center
Mon 07:55:22 PM 42.4261 -82.9411 287° West 100 115 1,200  Climbing Cleveland Center
Mon 07:56:28 PM 42.4186 -82.9136 110° East 33 38 900 -93 Descending Cleveland Center
Mon 07:58:36 PM 42.4186 -82.9136 324° Northwest 33 38 900  Level Cleveland Center
Mon 08:00:38 PM 42.4186 -82.9136 324° Northwest 33 38 900  Level Cleveland Center
Mon 08:02:40 PM 42.4186 -82.9136 324° Northwest 33 38 900  Level Cleveland Center
Mon 08:04:42 PM 42.4186 -82.9136 324° Northwest 33 38 900  Level Cleveland Center
Mon 08:06:50 PM 42.4186 -82.9136 324° Northwest 33 38 900  Level Cleveland Center
Mon 08:08:46 PM 42.4186 -82.9136 324° Northwest 33 38 900  Level Cleveland Center
Mon 08:10:43 PM 42.4186 -82.9136 324° Northwest 33 38 900  Level Cleveland Center
Mon 08:12:57 PM 42.4186 -82.9136 324° Northwest 33 38 900  Level Cleveland Center
Mon 08:14:47 PM 42.4186 -82.9136 324° Northwest 33 38 900 11 Level Cleveland Center
Mon 08:48:03 PM 42.4131 -82.9300 242° Southwest 90 104 1,300 32 Climbing Cleveland Center
Mon 08:49:03 PM 42.4081 -82.9689 260° West 109 125 2,000 331 Climbing Cleveland Center
Mon 08:50:10 PM 42.3975 -83.0294 257° West 151 174 2,000  Level Cleveland Center
Mon 08:51:17 PM 42.3886 -83.0906 259° West 152 175 2,000  Level Cleveland Center
Mon 08:52:11 PM 42.3806 -83.1431 258° West 152 175 2,000  Level Cleveland Center
Mon 08:53:12 PM 42.3719 -83.1983 258° West 150 173 2,000  Level Cleveland Center
Mon 08:54:13 PM 42.3719 -83.2550 270° West 151 174 2,000  Level Cleveland Center
Mon 08:55:13 PM 42.3614 -83.3100 255° West 149 171 2,000  Level Cleveland Center
Mon 08:56:14 PM 42.3508 -83.3650 255° West 154 177 2,000  Level Cleveland Center
Mon 08:57:08 PM 42.3428 -83.4147 258° West 153 176 2,000  Level Cleveland Center
Mon 08:58:09 PM 42.3322 -83.4697 255° West 154 177 2,000  Level Cleveland Center
Mon 08:59:10 PM 42.3214 -83.5275 256° West 156 180 2,000  Level Cleveland Center
Mon 09:00:10 PM 42.3103 -83.5881 256° West 156 180 2,000  Level Cleveland Center
Mon 09:01:11 PM 42.3100 -83.6444 270° West 155 178 2,000  Level Cleveland Center
Mon 09:02:18 PM 42.3056 -83.6975 264° West 105 121 2,000 -236 Level Cleveland Center
Mon 09:03:18 PM 42.2894 -83.7147 218° Southwest 62 71 1,500 -496 Descending Cleveland Center
Mon 09:04:19 PM 42.2842 -83.7281 242° Southwest 39 45 1,000 -492 Descending Cleveland Center

Login

Don't have an account? Register now (free) for customized features, flight alerts, and more!